createdAt,value
2018-11-25T00:00:29.668Z,6.10
2018-11-25T00:02:58.219Z,6.10
2018-11-25T00:05:26.829Z,6.10
2018-11-25T00:07:55.435Z,6.20
2018-11-25T00:10:23.954Z,6.20
2018-11-25T00:12:52.560Z,6.20
2018-11-25T00:15:21.185Z,6.20
2018-11-25T00:17:49.684Z,6.20
2018-11-25T00:20:18.283Z,6.10
2018-11-25T00:22:46.830Z,6.20
2018-11-25T00:25:15.470Z,6.20
2018-11-25T00:27:43.958Z,6.20
2018-11-25T00:30:14.609Z,6.10
2018-11-25T00:32:43.275Z,6.00
2018-11-25T00:35:16.319Z,6.00
2018-11-25T00:37:48.243Z,5.90
2018-11-25T00:40:14.537Z,6.00
2018-11-25T00:42:43.487Z,5.90
2018-11-25T00:45:15.373Z,5.90
2018-11-25T00:47:43.987Z,5.70
2018-11-25T00:50:13.597Z,5.70
2018-11-25T00:52:42.128Z,5.60
2018-11-25T00:55:11.876Z,5.50
2018-11-25T00:57:40.395Z,5.40
2018-11-25T01:00:20.766Z,5.50
2018-11-25T01:02:50.234Z,5.50
2018-11-25T01:05:18.879Z,5.60
2018-11-25T01:07:47.422Z,5.60
2018-11-25T01:10:16.721Z,5.70
2018-11-25T01:12:45.638Z,5.70
2018-11-25T01:15:15.196Z,5.80
2018-11-25T01:17:43.903Z,5.90
2018-11-25T01:20:13.790Z,5.90
2018-11-25T01:22:42.307Z,5.90
2018-11-25T01:25:11.378Z,5.90
2018-11-25T01:27:39.876Z,5.90
2018-11-25T01:30:11.003Z,5.80
2018-11-25T01:32:39.555Z,5.80
2018-11-25T01:35:09.266Z,5.80
2018-11-25T01:37:37.803Z,5.80
2018-11-25T01:40:15.304Z,5.80
2018-11-25T01:42:43.965Z,5.90
2018-11-25T01:45:13.584Z,5.90
2018-11-25T01:47:42.120Z,5.90
2018-11-25T01:50:12.043Z,5.90
2018-11-25T01:52:40.599Z,5.80
2018-11-25T01:55:10.559Z,5.80
2018-11-25T01:57:39.131Z,5.90
2018-11-25T02:00:15.769Z,5.90
2018-11-25T02:02:44.361Z,6.00
2018-11-25T02:05:12.961Z,6.00
2018-11-25T02:07:41.497Z,5.90
2018-11-25T02:10:16.032Z,5.80
2018-11-25T02:12:44.594Z,5.70
2018-11-25T02:15:14.758Z,5.70
2018-11-25T02:17:43.327Z,5.80
2018-11-25T02:20:20.618Z,5.80
2018-11-25T02:22:49.523Z,5.80
2018-11-25T02:25:18.040Z,5.80
2018-11-25T02:27:46.569Z,5.90
2018-11-25T02:30:16.038Z,6.00
2018-11-25T02:32:44.599Z,6.00
2018-11-25T02:35:13.822Z,5.90
2018-11-25T02:37:42.299Z,6.00
2018-11-25T02:40:12.937Z,5.90
2018-11-25T02:42:41.437Z,6.00
2018-11-25T02:45:13.466Z,6.00
2018-11-25T02:47:42.011Z,6.00
2018-11-25T02:50:29.413Z,5.90
2018-11-25T02:52:59.089Z,5.90
2018-11-25T02:55:27.883Z,5.90
2018-11-25T02:57:56.422Z,5.90
2018-11-25T03:00:24.997Z,6.00
2018-11-25T03:02:53.477Z,6.00
2018-11-25T03:05:21.975Z,5.90
2018-11-25T03:07:50.499Z,6.00
2018-11-25T03:10:19.032Z,5.90
2018-11-25T03:12:47.579Z,5.80
2018-11-25T03:15:17.638Z,5.80
2018-11-25T03:17:46.298Z,5.90
2018-11-25T03:20:15.730Z,6.00
2018-11-25T03:22:44.317Z,5.90
2018-11-25T03:25:14.718Z,6.00
2018-11-25T03:27:43.243Z,5.90
2018-11-25T03:30:13.887Z,5.90
2018-11-25T03:32:42.685Z,6.00
2018-11-25T03:35:12.236Z,5.90
2018-11-25T03:37:40.809Z,5.80
2018-11-25T03:40:13.603Z,5.80
2018-11-25T03:42:42.179Z,5.70
2018-11-25T03:45:17.284Z,5.70
2018-11-25T03:47:45.860Z,5.70
2018-11-25T03:50:15.040Z,5.60
2018-11-25T03:52:43.569Z,5.50
2018-11-25T03:55:13.989Z,5.60
2018-11-25T03:57:42.570Z,5.60
2018-11-25T04:00:14.660Z,5.70
2018-11-25T04:02:43.286Z,5.60
2018-11-25T04:05:13.148Z,5.70
2018-11-25T04:07:41.673Z,5.70
2018-11-25T04:10:14.239Z,5.70
2018-11-25T04:12:42.753Z,5.70
2018-11-25T04:15:13.955Z,5.70
2018-11-25T04:17:42.496Z,5.60
2018-11-25T04:20:13.172Z,5.60
2018-11-25T04:22:41.701Z,5.60
2018-11-25T04:25:11.010Z,5.60
2018-11-25T04:27:39.533Z,5.50
2018-11-25T04:30:15.663Z,5.50
2018-11-25T04:32:44.812Z,5.60
2018-11-25T04:35:13.811Z,5.60
2018-11-25T04:37:42.317Z,5.50
2018-11-25T04:40:11.902Z,5.50
2018-11-25T04:42:40.450Z,5.40
2018-11-25T04:45:13.381Z,5.40
2018-11-25T04:47:41.897Z,5.40
2018-11-25T04:50:19.939Z,5.40
2018-11-25T04:52:48.503Z,5.30
2018-11-25T04:55:17.052Z,5.40
2018-11-25T04:57:49.550Z,5.40
2018-11-25T05:00:18.263Z,5.40
2018-11-25T05:02:46.833Z,5.40
2018-11-25T05:05:15.985Z,5.30
2018-11-25T05:07:44.453Z,5.40
2018-11-25T05:10:13.923Z,5.40
2018-11-25T05:12:42.404Z,5.40
2018-11-25T05:15:15.961Z,5.40
2018-11-25T05:17:44.485Z,5.30
2018-11-25T05:20:13.649Z,5.20
2018-11-25T05:22:42.096Z,5.20
2018-11-25T05:25:14.619Z,5.30
2018-11-25T05:27:43.066Z,5.40
2018-11-25T05:30:13.837Z,5.40
2018-11-25T05:32:42.419Z,5.30
2018-11-25T05:35:13.809Z,5.40
2018-11-25T05:37:42.341Z,5.30
2018-11-25T05:40:11.921Z,5.40
2018-11-25T05:42:40.518Z,5.40
2018-11-25T05:45:16.649Z,5.40
2018-11-25T05:47:45.227Z,5.30
2018-11-25T05:50:14.867Z,5.30
2018-11-25T05:52:43.343Z,5.30
2018-11-25T05:55:12.510Z,5.40
2018-11-25T05:57:41.203Z,5.40
2018-11-25T06:00:16.055Z,5.40
2018-11-25T06:02:44.605Z,5.40
2018-11-25T06:05:13.162Z,5.40
2018-11-25T06:07:41.740Z,5.40
2018-11-25T06:10:11.657Z,5.40
2018-11-25T06:12:40.513Z,5.40
2018-11-25T06:15:11.176Z,5.50
2018-11-25T06:17:39.706Z,5.50
2018-11-25T06:20:10.996Z,5.40
2018-11-25T06:22:39.471Z,5.40
2018-11-25T06:25:10.413Z,5.50
2018-11-25T06:27:39.004Z,5.40
2018-11-25T06:30:10.895Z,5.40
2018-11-25T06:32:39.584Z,5.40
2018-11-25T06:35:09.446Z,5.40
2018-11-25T06:37:37.920Z,5.30
2018-11-25T06:40:10.245Z,5.30
2018-11-25T06:42:38.781Z,5.30
2018-11-25T06:45:18.959Z,5.30
2018-11-25T06:47:47.534Z,5.40
2018-11-25T06:50:16.075Z,5.40
2018-11-25T06:52:44.658Z,5.40
2018-11-25T06:55:13.292Z,5.40
2018-11-25T06:57:41.807Z,5.40
2018-11-25T07:00:14.139Z,5.50
2018-11-25T07:02:42.620Z,5.50
2018-11-25T07:05:11.234Z,5.50
2018-11-25T07:07:39.745Z,5.50
2018-11-25T07:10:10.811Z,5.60
2018-11-25T07:12:39.411Z,5.50
2018-11-25T07:21:56.366Z,5.50
2018-11-25T07:24:24.922Z,5.40
2018-11-25T07:26:53.409Z,5.40
2018-11-25T07:29:21.910Z,5.40
2018-11-25T07:31:50.486Z,5.40
2018-11-25T07:34:18.966Z,5.50
2018-11-25T07:36:47.490Z,5.50
2018-11-25T07:39:16.039Z,5.50
2018-11-25T07:41:44.552Z,5.50
2018-11-25T07:44:13.093Z,5.40
2018-11-25T07:46:41.605Z,5.40
2018-11-25T07:49:10.138Z,5.40
2018-11-25T07:51:38.648Z,5.40
2018-11-25T07:54:14.448Z,5.50
2018-11-25T07:56:43.000Z,5.50
2018-11-25T07:59:11.522Z,5.60
2018-11-25T08:01:40.084Z,5.60
2018-11-25T08:04:08.629Z,5.70
2018-11-25T08:06:37.116Z,5.80
2018-11-25T08:09:11.938Z,5.80
2018-11-25T08:11:40.493Z,5.80
2018-11-25T08:14:09.017Z,5.90
2018-11-25T08:16:37.552Z,5.90
2018-11-25T08:19:06.696Z,5.90
2018-11-25T08:21:35.207Z,6.00
2018-11-25T08:24:03.766Z,6.00
2018-11-25T08:26:32.281Z,6.10
2018-11-25T08:29:00.776Z,6.10
2018-11-25T08:31:29.270Z,6.20
2018-11-25T08:33:57.821Z,6.20
2018-11-25T08:36:26.360Z,6.20
2018-11-25T08:38:54.899Z,6.10
2018-11-25T08:41:23.386Z,6.00
2018-11-25T08:43:51.893Z,6.00
2018-11-25T08:46:20.482Z,6.10
2018-11-25T08:48:49.025Z,6.10
2018-11-25T08:51:17.526Z,6.10
2018-11-25T08:53:46.144Z,6.10
2018-11-25T08:56:14.719Z,6.10
2018-11-25T08:58:43.324Z,6.20
2018-11-25T09:01:11.892Z,6.20
2018-11-25T09:03:40.428Z,6.20
2018-11-25T09:06:08.939Z,6.30
2018-11-25T09:08:37.475Z,6.50
2018-11-25T09:11:06.408Z,6.50
2018-11-25T09:13:34.969Z,6.60
2018-11-25T09:16:03.548Z,6.70
2018-11-25T09:18:32.142Z,6.70
2018-11-25T09:21:00.693Z,7.00
2018-11-25T09:23:29.234Z,7.30
2018-11-25T09:25:57.758Z,7.50
2018-11-25T09:28:26.340Z,7.80
2018-11-25T09:30:54.902Z,7.90
2018-11-25T09:33:23.535Z,7.80
2018-11-25T09:35:52.136Z,7.80
2018-11-25T09:38:20.678Z,7.70
2018-11-25T09:40:49.232Z,7.60
2018-11-25T09:43:17.826Z,7.40
2018-11-25T09:45:46.359Z,7.20
2018-11-25T09:48:16.071Z,7.10
2018-11-25T09:50:43.799Z,7.10
2018-11-25T09:53:12.379Z,7.00
2018-11-25T09:55:40.924Z,7.00
2018-11-25T09:58:09.523Z,7.10
2018-11-25T10:00:38.085Z,7.20
2018-11-25T10:03:07.808Z,7.20
2018-11-25T10:05:36.401Z,7.20
2018-11-25T10:08:05.005Z,7.00
2018-11-25T10:10:33.620Z,7.00
2018-11-25T10:13:02.207Z,6.90
2018-11-25T10:15:31.081Z,6.90
2018-11-25T10:18:00.221Z,7.00
2018-11-25T10:20:29.629Z,7.20
2018-11-25T10:22:58.197Z,7.40
2018-11-25T10:25:26.763Z,7.40
2018-11-25T10:27:55.474Z,7.30
2018-11-25T10:30:26.045Z,7.50
2018-11-25T10:32:58.883Z,7.60
2018-11-25T10:35:27.424Z,8.10
2018-11-25T10:37:56.018Z,8.00
2018-11-25T10:40:25.204Z,8.20
2018-11-25T10:42:53.760Z,8.30
2018-11-25T10:45:26.335Z,8.50
2018-11-25T10:47:55.392Z,8.50
2018-11-25T10:50:24.019Z,8.20
2018-11-25T10:52:52.626Z,8.10
2018-11-25T10:55:21.862Z,8.10
2018-11-25T10:57:51.470Z,8.10
2018-11-25T11:01:35.117Z,8.10
2018-11-25T11:04:04.876Z,8.10
2018-11-25T11:06:38.896Z,8.10
2018-11-25T11:09:15.055Z,8.10
2018-11-25T11:11:43.647Z,8.10
2018-11-25T11:14:12.212Z,8.20
2018-11-25T11:16:40.765Z,8.30
2018-11-25T11:19:09.313Z,8.30
2018-11-25T11:21:37.860Z,8.40
2018-11-25T11:24:06.581Z,8.30
2018-11-25T11:26:35.172Z,8.40
2018-11-25T11:29:03.731Z,8.40
2018-11-25T11:31:32.287Z,8.40
2018-11-25T11:34:00.796Z,8.40
2018-11-25T11:36:29.370Z,8.40
2018-11-25T11:38:57.945Z,8.40
2018-11-25T11:41:26.463Z,8.40
2018-11-25T11:43:55.075Z,8.50
2018-11-25T11:46:23.585Z,8.60
2018-11-25T11:48:52.111Z,8.50
2018-11-25T11:51:25.614Z,8.70
2018-11-25T11:53:49.234Z,8.70
2018-11-25T11:56:17.779Z,8.70
2018-11-25T11:58:46.363Z,8.80
2018-11-25T12:01:14.904Z,8.80
2018-11-25T12:03:43.454Z,8.80
2018-11-25T12:06:12.044Z,8.70
2018-11-25T12:08:40.724Z,8.70
2018-11-25T12:11:09.374Z,8.70
2018-11-25T12:13:37.951Z,8.60
2018-11-25T12:16:06.601Z,8.60
2018-11-25T12:18:35.144Z,8.60
2018-11-25T12:21:03.730Z,8.60
2018-11-25T12:23:32.339Z,8.60
2018-11-25T12:26:00.965Z,8.60
2018-11-25T12:28:29.509Z,8.60
2018-11-25T12:30:58.068Z,8.60
2018-11-25T12:33:26.638Z,8.70
2018-11-25T12:35:55.168Z,8.70
2018-11-25T12:38:23.725Z,8.70
2018-11-25T12:40:52.281Z,8.80
2018-11-25T12:43:20.778Z,8.70
2018-11-25T12:45:49.391Z,8.70
2018-11-25T12:48:17.919Z,8.70
2018-11-25T12:50:46.463Z,8.70
2018-11-25T12:53:15.055Z,8.60
2018-11-25T12:55:43.569Z,8.60
2018-11-25T12:58:12.107Z,8.50
2018-11-25T13:00:42.198Z,8.50
2018-11-25T13:03:12.916Z,8.50
2018-11-25T13:05:45.903Z,8.60
2018-11-25T13:08:12.449Z,8.50
2018-11-25T13:10:41.358Z,8.50
2018-11-25T13:13:11.013Z,8.50
2018-11-25T13:15:39.651Z,8.50
2018-11-25T13:18:12.832Z,8.60
2018-11-25T13:20:41.709Z,8.40
2018-11-25T13:23:10.322Z,8.40
2018-11-25T13:25:38.887Z,8.40
2018-11-25T13:28:07.657Z,8.40
2018-11-25T13:30:36.425Z,8.40
2018-11-25T13:33:05.591Z,8.40
2018-11-25T13:35:35.843Z,8.40
2018-11-25T13:38:04.495Z,8.50
2018-11-25T13:40:33.070Z,8.50
2018-11-25T13:43:01.637Z,8.40
2018-11-25T13:45:30.430Z,8.50
2018-11-25T13:47:59.064Z,8.50
2018-11-25T13:50:27.934Z,8.40
2018-11-25T13:52:56.802Z,8.50
2018-11-25T13:55:27.506Z,8.50
2018-11-25T13:57:56.159Z,8.50
2018-11-25T14:00:51.035Z,8.40
2018-11-25T14:03:28.489Z,8.40
2018-11-25T14:05:57.111Z,8.40
2018-11-25T14:08:25.738Z,8.30
2018-11-25T14:10:59.358Z,8.30
2018-11-25T14:13:27.951Z,8.40
2018-11-25T14:15:56.597Z,8.40
2018-11-25T14:18:25.173Z,8.40
2018-11-25T14:20:53.779Z,8.20
2018-11-25T14:23:22.355Z,8.20
2018-11-25T14:25:51.173Z,8.20
2018-11-25T14:28:19.759Z,8.10
2018-11-25T14:30:48.301Z,8.20
2018-11-25T14:33:16.917Z,8.10
2018-11-25T14:35:45.531Z,8.10
2018-11-25T14:38:14.174Z,8.10
2018-11-25T14:40:42.740Z,8.10
2018-11-25T14:43:11.326Z,8.10
2018-11-25T14:45:39.947Z,8.00
2018-11-25T14:48:08.484Z,8.00
2018-11-25T14:50:37.015Z,8.00
2018-11-25T14:53:07.798Z,7.90
2018-11-25T14:55:36.677Z,7.90
2018-11-25T14:58:05.381Z,7.90
2018-11-25T15:00:33.962Z,7.80
2018-11-25T15:03:03.662Z,7.80
2018-11-25T15:05:37.196Z,7.70
2018-11-25T15:08:06.688Z,7.70
2018-11-25T15:10:35.282Z,7.70
2018-11-25T15:13:03.855Z,7.70
2018-11-25T15:15:32.349Z,7.60
2018-11-25T15:18:00.873Z,7.60
2018-11-25T15:20:29.440Z,7.60
2018-11-25T15:22:59.850Z,7.60
2018-11-25T15:25:31.143Z,7.60
2018-11-25T15:27:59.699Z,7.60
2018-11-25T15:30:28.225Z,7.50
2018-11-25T15:32:57.001Z,7.40
2018-11-25T15:35:25.620Z,7.30
2018-11-25T15:37:54.821Z,7.30
2018-11-25T15:40:25.027Z,7.20
2018-11-25T15:42:53.674Z,7.10
2018-11-25T15:45:22.258Z,7.10
2018-11-25T15:47:55.676Z,7.00
2018-11-25T15:50:26.737Z,7.00
2018-11-25T15:52:55.655Z,7.00
2018-11-25T15:55:24.387Z,6.90
2018-11-25T15:57:52.965Z,6.90
2018-11-25T16:00:22.721Z,6.90
2018-11-25T16:02:51.324Z,6.90
2018-11-25T16:05:31.040Z,6.80
2018-11-25T16:07:59.746Z,6.80
2018-11-25T16:10:28.470Z,6.90
2018-11-25T16:12:57.050Z,6.90
2018-11-25T16:15:27.106Z,6.90
2018-11-25T16:17:55.663Z,6.80
2018-11-25T16:20:25.661Z,6.80
2018-11-25T16:22:55.963Z,6.70
2018-11-25T16:25:33.004Z,6.70
2018-11-25T16:28:05.026Z,6.60
2018-11-25T16:30:33.597Z,6.70
2018-11-25T16:33:02.189Z,6.60
2018-11-25T16:35:30.778Z,6.60
2018-11-25T16:37:59.437Z,6.60
2018-11-25T16:40:27.958Z,6.60
2018-11-25T16:42:56.599Z,6.50
2018-11-25T16:45:25.216Z,6.50
2018-11-25T16:47:54.592Z,6.50
2018-11-25T16:50:25.356Z,6.40
2018-11-25T16:52:51.822Z,6.30
2018-11-25T16:55:20.507Z,6.30
2018-11-25T16:57:49.070Z,6.30
2018-11-25T17:00:18.724Z,6.30
2018-11-25T17:02:48.031Z,6.20
2018-11-25T17:05:19.154Z,6.20
2018-11-25T17:07:49.555Z,6.20
2018-11-25T17:10:18.161Z,6.20
2018-11-25T17:12:46.828Z,6.20
2018-11-25T17:15:20.216Z,6.20
2018-11-25T17:17:48.911Z,6.10
2018-11-25T17:20:17.515Z,6.10
2018-11-25T17:22:46.173Z,6.10
2018-11-25T17:25:15.187Z,6.20
2018-11-25T17:27:44.024Z,6.10
2018-11-25T17:30:17.598Z,6.10
2018-11-25T17:32:46.612Z,6.10
2018-11-25T17:35:17.772Z,6.10
2018-11-25T17:37:46.386Z,6.00
2018-11-25T17:40:15.032Z,6.10
2018-11-25T17:42:43.638Z,6.00
2018-11-25T17:45:14.670Z,6.00
2018-11-25T17:47:43.581Z,6.00
2018-11-25T17:50:14.884Z,6.00
2018-11-25T17:52:43.508Z,5.90
2018-11-25T17:55:13.092Z,6.00
2018-11-25T17:57:41.759Z,6.00
2018-11-25T18:00:34.386Z,6.00
2018-11-25T18:03:02.985Z,6.00
2018-11-25T18:05:38.456Z,6.00
2018-11-25T18:08:00.231Z,6.00
2018-11-25T18:10:28.801Z,5.90
2018-11-25T18:12:57.430Z,6.00
2018-11-25T18:15:26.047Z,5.90
2018-11-25T18:17:58.626Z,6.00
2018-11-25T18:20:29.728Z,5.90
2018-11-25T18:22:58.361Z,5.90
2018-11-25T18:25:26.900Z,5.90
2018-11-25T18:28:00.618Z,5.90
2018-11-25T18:30:24.252Z,5.90
2018-11-25T18:32:52.980Z,5.90
2018-11-25T18:35:21.698Z,5.90
2018-11-25T18:37:50.297Z,5.90
2018-11-25T18:40:18.895Z,5.90
2018-11-25T18:42:47.572Z,5.90
2018-11-25T18:45:17.499Z,5.80
2018-11-25T18:47:47.635Z,5.90
2018-11-25T18:50:17.068Z,5.80
2018-11-25T18:52:47.476Z,5.80
2018-11-25T18:55:27.364Z,5.80
2018-11-25T18:57:55.958Z,5.80
2018-11-25T19:00:29.619Z,5.80
2018-11-25T19:02:58.321Z,5.80
2018-11-25T19:05:26.909Z,5.80
2018-11-25T19:07:55.578Z,5.80
2018-11-25T19:10:24.231Z,5.80
2018-11-25T19:12:53.345Z,5.80
2018-11-25T19:15:22.048Z,5.80
2018-11-25T19:17:50.783Z,5.80
2018-11-25T19:20:25.991Z,5.80
2018-11-25T19:22:55.047Z,5.80
2018-11-25T19:25:23.701Z,5.80
2018-11-25T19:27:52.597Z,5.90
2018-11-25T19:30:26.360Z,5.90
2018-11-25T19:32:50.671Z,5.90
2018-11-25T19:35:20.726Z,5.80
2018-11-25T19:37:50.629Z,5.90
2018-11-25T19:40:21.633Z,5.80
2018-11-25T19:42:50.480Z,5.90
2018-11-25T19:45:21.388Z,5.90
2018-11-25T19:47:50.007Z,5.90
2018-11-25T19:50:34.765Z,5.80
2018-11-25T19:53:03.426Z,5.80
2018-11-25T19:55:32.100Z,5.80
2018-11-25T19:58:00.690Z,5.80
2018-11-25T20:00:30.100Z,5.80
2018-11-25T20:02:58.698Z,5.80
2018-11-25T20:05:27.305Z,5.80
2018-11-25T20:07:55.978Z,5.80
2018-11-25T20:10:25.591Z,5.80
2018-11-25T20:12:56.421Z,5.90
2018-11-25T20:15:25.049Z,5.90
2018-11-25T20:17:54.715Z,5.90
2018-11-25T20:20:24.339Z,5.90
2018-11-25T20:22:53.614Z,5.90
2018-11-25T20:25:22.262Z,5.90
2018-11-25T20:27:53.117Z,5.90
2018-11-25T20:30:25.033Z,5.90
2018-11-25T20:32:58.943Z,5.80
2018-11-25T20:35:28.934Z,5.90
2018-11-25T20:38:02.758Z,6.10
2018-11-25T20:40:31.514Z,6.10
2018-11-25T20:43:00.363Z,6.10
2018-11-25T20:45:39.039Z,6.10
2018-11-25T20:48:03.046Z,6.10
2018-11-25T20:50:31.668Z,6.10
2018-11-25T20:53:05.452Z,6.20
2018-11-25T20:55:34.072Z,6.20
2018-11-25T20:58:02.627Z,6.30
2018-11-25T21:00:31.546Z,6.40
2018-11-25T21:03:00.214Z,6.30
2018-11-25T21:05:28.793Z,6.30
2018-11-25T21:07:57.476Z,6.30
2018-11-25T21:10:26.267Z,6.30
2018-11-25T21:12:55.336Z,6.30
2018-11-25T21:15:23.920Z,6.40
2018-11-25T21:17:52.490Z,6.40
2018-11-25T21:20:22.690Z,6.40
2018-11-25T21:22:51.222Z,6.50
2018-11-25T21:25:20.888Z,6.50
2018-11-25T21:27:49.580Z,6.50
2018-11-25T21:30:23.536Z,6.50
2018-11-25T21:32:54.220Z,6.60
2018-11-25T21:35:22.854Z,6.70
2018-11-25T21:37:51.418Z,6.60
2018-11-25T21:40:20.896Z,6.60
2018-11-25T21:42:49.479Z,6.60
2018-11-25T21:45:19.089Z,6.60
2018-11-25T21:47:48.111Z,6.60
2018-11-25T21:50:19.783Z,6.70
2018-11-25T21:52:48.304Z,6.70
2018-11-25T21:55:17.603Z,6.60
2018-11-25T21:57:46.205Z,6.60
2018-11-25T22:00:19.702Z,6.60
2018-11-25T22:02:48.342Z,6.60
2018-11-25T22:05:17.104Z,6.60
2018-11-25T22:07:45.701Z,6.50
2018-11-25T22:10:15.888Z,6.60
2018-11-25T22:12:45.030Z,6.60
2018-11-25T22:15:21.497Z,6.70
2018-11-25T22:17:50.089Z,6.60
2018-11-25T22:20:18.961Z,6.60
2018-11-25T22:22:47.563Z,6.60
2018-11-25T22:25:18.161Z,6.60
2018-11-25T22:27:46.885Z,6.60
2018-11-25T22:30:18.296Z,6.60
2018-11-25T22:32:46.856Z,6.50
2018-11-25T22:35:16.603Z,6.50
2018-11-25T22:37:45.153Z,6.50
2018-11-25T22:40:14.816Z,6.50
2018-11-25T22:42:44.194Z,6.50
2018-11-25T22:45:14.635Z,6.50
2018-11-25T22:47:43.160Z,6.50
2018-11-25T22:50:13.678Z,6.40
2018-11-25T22:52:42.241Z,6.50
2018-11-25T22:55:16.207Z,6.50
2018-11-25T22:57:44.851Z,6.50
2018-11-25T23:00:20.394Z,6.40
2018-11-25T23:02:48.956Z,6.40
2018-11-25T23:05:28.614Z,6.40
2018-11-25T23:07:57.088Z,6.40
2018-11-25T23:10:25.640Z,6.40
2018-11-25T23:12:54.199Z,6.40
2018-11-25T23:15:22.811Z,6.40
2018-11-25T23:17:51.388Z,6.40
2018-11-25T23:20:19.932Z,6.40
2018-11-25T23:22:48.453Z,6.40
2018-11-25T23:25:17.004Z,6.40
2018-11-25T23:27:45.453Z,6.30
2018-11-25T23:30:13.946Z,6.30
2018-11-25T23:32:42.483Z,6.30
2018-11-25T23:35:14.949Z,6.30
2018-11-25T23:37:43.482Z,6.30
2018-11-25T23:40:12.033Z,6.30
2018-11-25T23:42:40.601Z,6.30
2018-11-25T23:45:13.592Z,6.30
2018-11-25T23:47:42.206Z,6.30
2018-11-25T23:50:12.914Z,6.30
2018-11-25T23:52:42.078Z,6.30
2018-11-25T23:55:11.655Z,6.30
2018-11-25T23:57:40.268Z,6.30
